createdAt,value
2022-11-06T00:00:23.922Z,93.91
2022-11-06T00:02:50.460Z,94.11
2022-11-06T00:05:35.845Z,94.01
2022-11-06T00:08:02.074Z,93.75
2022-11-06T00:10:31.775Z,93.31
2022-11-06T00:12:59.993Z,93.04
2022-11-06T00:15:26.693Z,92.96
2022-11-06T00:17:53.194Z,93.41
2022-11-06T00:20:20.291Z,93.36
2022-11-06T00:22:46.677Z,93.42
2022-11-06T00:25:13.074Z,93.42
2022-11-06T00:27:41.622Z,93.23
2022-11-06T00:30:11.180Z,92.94
2022-11-06T00:32:38.626Z,92.99
2022-11-06T00:35:06.048Z,92.90
2022-11-06T00:37:33.258Z,93.26
2022-11-06T00:39:59.575Z,93.16
2022-11-06T00:42:26.246Z,93.00
2022-11-06T00:44:52.549Z,93.80
2022-11-06T00:47:18.867Z,93.68
2022-11-06T00:49:45.681Z,93.42
2022-11-06T00:52:12.002Z,93.44
2022-11-06T00:54:38.342Z,93.55
2022-11-06T00:57:05.180Z,93.63
2022-11-06T00:59:31.497Z,94.01
2022-11-06T01:01:57.924Z,93.63
2022-11-06T01:04:26.098Z,93.91
2022-11-06T01:06:56.575Z,92.58
2022-11-06T01:09:25.001Z,93.30
2022-11-06T01:14:42.971Z,93.19
2022-11-06T01:17:09.902Z,93.07
2022-11-06T01:19:36.379Z,92.97
2022-11-06T01:22:02.827Z,93.40
2022-11-06T01:24:29.742Z,93.92
2022-11-06T01:29:44.165Z,92.84
2022-11-06T01:32:10.866Z,92.88
2022-11-06T01:34:37.188Z,92.90
2022-11-06T01:37:04.099Z,93.17
2022-11-06T01:39:30.698Z,93.50
2022-11-06T01:41:57.626Z,92.87
2022-11-06T01:44:35.858Z,93.03
2022-11-06T01:47:04.892Z,92.41
2022-11-06T01:49:36.447Z,92.77
2022-11-06T01:52:09.513Z,92.22
2022-11-06T01:54:40.093Z,92.33
2022-11-06T01:57:07.253Z,92.02
2022-11-06T01:59:38.146Z,92.03
2022-11-06T02:02:04.958Z,91.91
2022-11-06T02:04:36.640Z,92.10
2022-11-06T02:07:04.048Z,92.27
2022-11-06T02:09:33.378Z,93.16
2022-11-06T02:12:07.396Z,93.70
2022-11-06T02:14:58.220Z,93.61
2022-11-06T02:17:33.086Z,93.48
2022-11-06T02:20:22.403Z,93.26
2022-11-06T02:23:03.378Z,93.97
2022-11-06T02:26:25.508Z,92.17
2022-11-06T02:29:01.692Z,92.47
2022-11-06T02:31:32.141Z,92.26
2022-11-06T02:34:04.991Z,93.24
2022-11-06T02:36:35.656Z,93.04
2022-11-06T02:39:06.105Z,93.35
2022-11-06T02:41:37.001Z,92.80
2022-11-06T02:44:07.675Z,92.54
2022-11-06T02:46:41.418Z,92.60
2022-11-06T02:49:39.681Z,92.79
2022-11-06T02:52:16.054Z,93.29
2022-11-06T02:54:47.329Z,93.25
2022-11-06T02:57:16.896Z,93.45
2022-11-06T02:59:52.601Z,93.27
2022-11-06T03:02:25.744Z,93.14
2022-11-06T03:05:02.632Z,93.53
2022-11-06T03:07:43.550Z,93.14
2022-11-06T03:10:11.569Z,92.54
2022-11-06T03:12:50.747Z,93.10
2022-11-06T03:15:39.643Z,92.72
2022-11-06T03:18:13.247Z,92.96
2022-11-06T03:20:48.850Z,92.65
2022-11-06T03:23:41.962Z,93.60
2022-11-06T03:26:26.855Z,94.74
2022-11-06T03:28:58.442Z,94.46
2022-11-06T03:31:33.774Z,94.58
2022-11-06T03:34:07.157Z,94.25
2022-11-06T03:36:44.254Z,93.71
2022-11-06T03:39:27.520Z,94.62
2022-11-06T03:42:01.824Z,94.47
2022-11-06T03:44:30.475Z,92.98
2022-11-06T03:47:28.562Z,93.68
2022-11-06T03:50:13.859Z,92.76
2022-11-06T03:52:43.383Z,92.83
2022-11-06T03:55:17.437Z,93.74
2022-11-06T03:57:58.782Z,94.05
2022-11-06T04:00:25.782Z,94.74
2022-11-06T04:03:04.720Z,94.99
2022-11-06T04:05:38.615Z,95.14
2022-11-06T04:08:24.350Z,95.79
2022-11-06T04:11:16.575Z,95.21
2022-11-06T04:14:04.281Z,95.91
2022-11-06T04:16:38.888Z,96.82
2022-11-06T04:19:17.453Z,96.50
2022-11-06T04:22:21.110Z,96.96
2022-11-06T04:25:38.510Z,97.62
2022-11-06T04:28:30.170Z,98.23
2022-11-06T04:31:06.807Z,97.36
2022-11-06T04:34:02.062Z,97.96
2022-11-06T04:36:42.702Z,98.28
2022-11-06T04:39:29.193Z,97.62
2022-11-06T04:42:29.471Z,98.19
2022-11-06T04:45:01.819Z,97.01
2022-11-06T04:47:29.410Z,98.06
2022-11-06T04:49:59.469Z,96.79
2022-11-06T04:52:28.281Z,97.14
2022-11-06T04:54:56.147Z,97.39
2022-11-06T04:57:23.422Z,97.96
2022-11-06T04:59:50.308Z,98.75
2022-11-06T05:02:16.809Z,97.82
2022-11-06T05:04:43.342Z,96.16
2022-11-06T05:07:13.850Z,95.50
2022-11-06T05:09:40.927Z,95.76
2022-11-06T05:12:07.379Z,95.03
2022-11-06T05:14:34.233Z,94.70
2022-11-06T05:17:00.552Z,93.83
2022-11-06T05:19:26.883Z,93.84
2022-11-06T05:22:12.099Z,94.38
2022-11-06T05:24:38.453Z,94.95
2022-11-06T05:27:04.793Z,94.36
2022-11-06T05:29:31.674Z,94.55
2022-11-06T05:31:58.097Z,94.47
2022-11-06T05:34:24.573Z,94.69
2022-11-06T05:36:51.258Z,94.65
2022-11-06T05:39:17.569Z,95.46
2022-11-06T05:41:43.878Z,96.05
2022-11-06T05:44:11.008Z,94.79
2022-11-06T05:46:52.556Z,93.90
2022-11-06T05:49:19.342Z,93.96
2022-11-06T05:51:46.116Z,94.13
2022-11-06T05:54:12.530Z,94.42
2022-11-06T05:56:39.329Z,94.79
2022-11-06T05:59:05.710Z,96.85
2022-11-06T06:01:32.168Z,96.76
2022-11-06T06:03:59.083Z,96.88
2022-11-06T06:06:26.077Z,97.19
2022-11-06T06:08:52.395Z,97.41
2022-11-06T06:11:19.098Z,97.58
2022-11-06T06:13:45.440Z,98.71
2022-11-06T06:16:11.845Z,97.94
2022-11-06T06:18:38.546Z,98.19
2022-11-06T06:21:04.974Z,96.40
2022-11-06T06:23:32.409Z,95.70
2022-11-06T06:25:59.137Z,96.04
2022-11-06T06:28:26.730Z,95.67
2022-11-06T06:30:57.204Z,96.99
2022-11-06T06:33:26.887Z,95.41
2022-11-06T06:35:53.199Z,95.98
2022-11-06T06:38:19.972Z,95.41
2022-11-06T06:40:46.847Z,95.25
2022-11-06T06:43:13.146Z,95.17
2022-11-06T06:45:39.497Z,94.91
2022-11-06T06:48:07.018Z,94.32
2022-11-06T06:50:33.533Z,95.14
2022-11-06T06:53:00.274Z,94.99
2022-11-06T06:55:27.096Z,95.00
2022-11-06T06:58:00.558Z,95.23
2022-11-06T07:00:28.574Z,94.51
2022-11-06T07:02:54.997Z,95.02
2022-11-06T07:05:21.492Z,94.41
2022-11-06T07:07:48.415Z,94.68
2022-11-06T07:10:16.095Z,93.82
2022-11-06T07:12:42.398Z,93.66
2022-11-06T07:15:09.296Z,93.38
2022-11-06T07:17:35.832Z,93.68
2022-11-06T07:20:02.138Z,92.85
2022-11-06T07:22:36.734Z,93.54
2022-11-06T07:25:05.214Z,94.08
2022-11-06T07:27:32.246Z,93.15
2022-11-06T07:30:00.283Z,93.95
2022-11-06T07:32:26.754Z,93.46
2022-11-06T07:34:53.622Z,93.43
2022-11-06T07:37:20.015Z,93.13
2022-11-06T07:39:46.762Z,93.46
2022-11-06T07:42:13.130Z,92.91
2022-11-06T07:44:39.442Z,93.21
2022-11-06T07:47:05.946Z,93.25
2022-11-06T07:49:32.304Z,94.22
2022-11-06T07:51:58.808Z,93.90
2022-11-06T07:54:25.524Z,92.38
2022-11-06T07:56:51.857Z,93.38
2022-11-06T07:59:18.206Z,92.79
2022-11-06T08:01:45.285Z,93.00
2022-11-06T08:04:11.822Z,93.54
2022-11-06T08:06:38.326Z,92.03
2022-11-06T08:09:07.845Z,92.55
2022-11-06T08:11:34.341Z,92.60
2022-11-06T08:14:01.431Z,92.71
2022-11-06T08:16:28.643Z,91.55
2022-11-06T08:18:55.541Z,92.48
2022-11-06T08:21:22.589Z,92.38
2022-11-06T08:23:49.035Z,91.60
2022-11-06T08:26:15.554Z,90.88
2022-11-06T08:28:42.458Z,91.55
2022-11-06T08:31:09.916Z,92.53
2022-11-06T08:33:37.921Z,91.97
2022-11-06T08:36:06.107Z,90.85
2022-11-06T08:38:33.192Z,91.39
2022-11-06T08:41:04.797Z,89.69
2022-11-06T08:43:31.562Z,90.72
2022-11-06T08:45:59.239Z,90.16
2022-11-06T08:48:25.703Z,91.33
2022-11-06T08:50:52.666Z,88.61
2022-11-06T08:53:19.299Z,90.22
2022-11-06T08:55:45.722Z,90.30
2022-11-06T08:58:12.498Z,89.86
2022-11-06T09:00:38.864Z,89.39
2022-11-06T09:03:09.831Z,90.10
2022-11-06T09:05:40.230Z,89.56
2022-11-06T09:08:06.544Z,89.23
2022-11-06T09:10:32.886Z,89.39
2022-11-06T09:12:59.710Z,89.78
2022-11-06T09:15:27.188Z,88.53
2022-11-06T09:17:53.829Z,87.12
2022-11-06T09:20:22.338Z,87.31
2022-11-06T09:22:49.017Z,89.44
2022-11-06T09:25:16.389Z,86.64
2022-11-06T09:27:45.770Z,88.26
2022-11-06T09:30:14.421Z,88.40
2022-11-06T09:32:52.354Z,87.44
2022-11-06T09:35:20.165Z,86.76
2022-11-06T09:37:46.716Z,87.75
2022-11-06T09:40:21.803Z,89.05
2022-11-06T09:43:02.307Z,87.33
2022-11-06T09:45:32.347Z,87.80
2022-11-06T09:48:11.082Z,88.63
2022-11-06T09:50:44.851Z,88.68
2022-11-06T09:53:20.383Z,88.21
2022-11-06T09:55:49.810Z,87.96
2022-11-06T09:58:21.676Z,87.71
2022-11-06T10:00:52.172Z,85.65
2022-11-06T10:03:26.309Z,86.42
2022-11-06T10:05:54.026Z,85.77
2022-11-06T10:08:29.374Z,86.23
2022-11-06T10:11:28.049Z,87.40
2022-11-06T10:14:06.206Z,85.67
2022-11-06T10:16:45.269Z,85.15
2022-11-06T10:19:32.204Z,85.59
2022-11-06T10:22:07.925Z,88.92
2022-11-06T10:24:58.201Z,87.61
2022-11-06T10:27:39.815Z,85.29
2022-11-06T10:30:09.794Z,83.98
2022-11-06T10:33:07.016Z,84.47
2022-11-06T10:35:42.858Z,84.25
2022-11-06T10:38:15.323Z,85.40
2022-11-06T10:40:49.484Z,85.91
2022-11-06T10:43:43.726Z,88.10
2022-11-06T10:46:30.158Z,86.51
2022-11-06T10:49:11.016Z,85.80
2022-11-06T10:52:11.522Z,84.51
2022-11-06T10:54:59.342Z,84.46
2022-11-06T10:57:47.594Z,85.23
2022-11-06T11:00:16.117Z,87.19
2022-11-06T11:02:51.651Z,87.13
2022-11-06T11:05:22.087Z,86.85
2022-11-06T11:07:49.871Z,85.04
2022-11-06T11:10:29.090Z,85.45
2022-11-06T11:13:00.019Z,84.71
2022-11-06T11:15:32.914Z,83.22
2022-11-06T11:18:11.880Z,84.59
2022-11-06T11:20:41.636Z,82.88
2022-11-06T11:23:19.272Z,82.82
2022-11-06T11:25:54.956Z,82.15
2022-11-06T11:28:26.636Z,83.05
2022-11-06T11:31:15.073Z,83.03
2022-11-06T11:33:49.522Z,84.17
2022-11-06T11:36:16.328Z,83.81
2022-11-06T11:38:43.029Z,83.98
2022-11-06T11:41:14.785Z,83.98
2022-11-06T11:43:42.820Z,82.31
2022-11-06T11:46:09.087Z,83.27
2022-11-06T11:48:46.451Z,81.62
2022-11-06T11:51:21.991Z,80.27
2022-11-06T11:53:48.994Z,81.84
2022-11-06T11:56:36.137Z,83.07
2022-11-06T11:59:04.809Z,81.53
2022-11-06T12:01:50.108Z,80.31
2022-11-06T12:04:23.011Z,79.59
2022-11-06T12:06:57.122Z,79.15
2022-11-06T12:09:25.785Z,80.47
2022-11-06T12:11:55.569Z,81.37
2022-11-06T12:14:21.831Z,78.07
2022-11-06T12:16:51.490Z,77.67
2022-11-06T12:19:21.297Z,79.29
2022-11-06T12:21:53.413Z,80.45
2022-11-06T12:24:24.885Z,79.13
2022-11-06T12:27:18.768Z,78.64
2022-11-06T12:29:54.625Z,79.00
2022-11-06T12:32:40.073Z,78.17
2022-11-06T12:35:21.371Z,78.40
2022-11-06T12:38:28.149Z,78.52
2022-11-06T12:41:01.032Z,78.53
2022-11-06T12:43:37.423Z,80.26
2022-11-06T12:46:25.620Z,78.45
2022-11-06T12:49:00.956Z,77.65
2022-11-06T12:51:31.029Z,77.25
2022-11-06T12:54:33.202Z,77.69
2022-11-06T12:57:24.962Z,77.23
2022-11-06T13:00:31.211Z,77.06
2022-11-06T13:03:29.218Z,76.65
2022-11-06T13:06:18.146Z,79.68
2022-11-06T13:09:05.015Z,78.00
2022-11-06T13:11:51.824Z,76.94
2022-11-06T13:14:22.311Z,77.63
2022-11-06T13:17:20.951Z,77.45
2022-11-06T13:19:53.693Z,77.35
2022-11-06T13:22:23.399Z,78.98
2022-11-06T13:25:08.448Z,78.82
2022-11-06T13:27:57.054Z,78.82
2022-11-06T13:30:26.855Z,77.52
2022-11-06T13:33:00.291Z,77.52
2022-11-06T13:35:27.643Z,78.91
2022-11-06T13:37:56.062Z,78.27
2022-11-06T13:40:25.402Z,77.50
2022-11-06T13:42:59.702Z,77.29
2022-11-06T13:45:27.791Z,77.05
2022-11-06T13:48:15.486Z,76.18
2022-11-06T13:51:00.859Z,77.48
2022-11-06T13:53:38.283Z,77.20
2022-11-06T13:56:09.934Z,77.03
2022-11-06T13:59:21.098Z,77.43
2022-11-06T14:02:06.671Z,78.31
2022-11-06T14:04:53.657Z,79.03
2022-11-06T14:07:21.963Z,79.11
2022-11-06T14:09:49.273Z,79.45
2022-11-06T14:12:21.729Z,79.18
2022-11-06T14:14:48.574Z,78.98
2022-11-06T14:17:18.314Z,79.51
2022-11-06T14:19:50.518Z,78.83
2022-11-06T14:22:25.345Z,79.49
2022-11-06T14:24:54.603Z,79.70
2022-11-06T14:27:23.347Z,78.95
2022-11-06T14:30:00.694Z,78.73
2022-11-06T14:32:41.093Z,78.74
2022-11-06T14:35:29.782Z,79.51
2022-11-06T14:38:32.753Z,79.59
2022-11-06T14:40:59.603Z,79.63
2022-11-06T14:43:34.733Z,80.31
2022-11-06T14:46:22.666Z,80.75
2022-11-06T14:48:55.430Z,80.80
2022-11-06T14:51:29.216Z,80.41
2022-11-06T14:53:59.906Z,80.94
2022-11-06T14:56:30.408Z,81.29
2022-11-06T14:59:01.687Z,81.70
2022-11-06T15:01:37.534Z,82.29
2022-11-06T15:04:15.319Z,82.03
2022-11-06T15:06:47.180Z,82.23
2022-11-06T15:09:26.151Z,82.37
2022-11-06T15:12:02.910Z,82.89
2022-11-06T15:14:29.264Z,82.69
2022-11-06T15:17:03.978Z,83.15
2022-11-06T15:19:39.082Z,84.12
2022-11-06T15:22:08.639Z,84.30
2022-11-06T15:24:44.617Z,84.36
2022-11-06T15:27:20.314Z,85.92
2022-11-06T15:29:52.333Z,85.14
2022-11-06T15:32:22.930Z,86.05
2022-11-06T15:34:53.909Z,86.12
2022-11-06T15:37:24.798Z,86.30
2022-11-06T15:40:00.928Z,86.31
2022-11-06T15:42:30.263Z,87.00
2022-11-06T15:45:15.582Z,86.80
2022-11-06T15:47:52.425Z,87.10
2022-11-06T15:50:21.527Z,87.54
2022-11-06T15:52:49.058Z,87.57
2022-11-06T15:55:38.738Z,88.07
2022-11-06T15:58:18.329Z,88.20
2022-11-06T16:00:46.020Z,88.00
2022-11-06T16:03:18.836Z,88.78
2022-11-06T16:05:47.050Z,89.57
2022-11-06T16:08:15.809Z,88.48
2022-11-06T16:10:45.047Z,88.98
2022-11-06T16:13:13.839Z,90.73
2022-11-06T16:15:49.561Z,90.43
2022-11-06T16:18:31.157Z,90.24
2022-11-06T16:21:17.439Z,89.43
2022-11-06T16:23:49.380Z,90.06
2022-11-06T16:26:35.345Z,90.54
2022-11-06T16:29:09.843Z,90.01
2022-11-06T16:31:36.794Z,89.87
2022-11-06T16:34:06.085Z,90.93
2022-11-06T16:36:58.867Z,92.92
2022-11-06T16:39:40.072Z,93.33
2022-11-06T16:42:14.060Z,94.08
2022-11-06T16:44:40.783Z,94.23
2022-11-06T16:47:10.158Z,94.05
2022-11-06T16:49:53.585Z,94.34
2022-11-06T16:52:38.815Z,94.25
2022-11-06T16:55:16.826Z,94.00
2022-11-06T16:57:53.858Z,94.12
2022-11-06T17:00:20.498Z,93.87
2022-11-06T17:03:19.013Z,94.13
2022-11-06T17:05:54.978Z,92.45
2022-11-06T17:08:21.775Z,92.22
2022-11-06T17:10:50.153Z,92.14
2022-11-06T17:13:32.763Z,91.91
2022-11-06T17:16:04.463Z,92.46
2022-11-06T17:18:33.909Z,94.00
2022-11-06T17:21:06.080Z,94.80
2022-11-06T17:23:34.053Z,95.19
2022-11-06T17:26:13.124Z,94.99
2022-11-06T17:28:39.468Z,95.41
2022-11-06T17:31:05.960Z,95.96
2022-11-06T17:33:32.904Z,95.99
2022-11-06T17:35:59.227Z,96.44
2022-11-06T17:38:25.566Z,95.83
2022-11-06T17:40:52.269Z,95.80
2022-11-06T17:43:18.573Z,96.31
2022-11-06T17:45:47.801Z,96.33
2022-11-06T17:48:14.648Z,95.77
2022-11-06T17:50:59.767Z,95.53
2022-11-06T17:53:26.677Z,95.04
2022-11-06T17:55:52.993Z,94.35
2022-11-06T17:58:19.312Z,94.14
2022-11-06T18:00:46.130Z,93.93
2022-11-06T18:03:19.278Z,93.87
2022-11-06T18:05:47.080Z,95.00
2022-11-06T18:08:14.898Z,96.41
2022-11-06T18:10:41.537Z,96.66
2022-11-06T18:13:08.217Z,97.11
2022-11-06T18:15:36.339Z,96.86
2022-11-06T18:18:04.050Z,97.20
2022-11-06T18:20:30.943Z,96.91
2022-11-06T18:22:57.245Z,97.33
2022-11-06T18:25:23.578Z,97.30
2022-11-06T18:27:50.397Z,97.21
2022-11-06T18:30:16.748Z,97.53
2022-11-06T18:32:43.050Z,97.78
2022-11-06T18:35:10.010Z,97.89
2022-11-06T18:37:36.314Z,96.85
2022-11-06T18:40:03.259Z,97.07
2022-11-06T18:42:30.101Z,97.49
2022-11-06T18:44:56.416Z,97.71
2022-11-06T18:47:22.749Z,97.56
2022-11-06T18:49:49.475Z,97.64
2022-11-06T18:52:32.550Z,96.72
2022-11-06T18:55:02.456Z,96.38
2022-11-06T18:57:29.662Z,97.41
2022-11-06T18:59:56.032Z,97.29
2022-11-06T19:02:22.895Z,97.68
2022-11-06T19:04:49.970Z,97.33
2022-11-06T19:07:16.381Z,97.14
2022-11-06T19:09:42.733Z,97.29
2022-11-06T19:12:09.424Z,96.98
2022-11-06T19:14:35.737Z,97.01
2022-11-06T19:17:02.592Z,96.95
2022-11-06T19:19:28.911Z,96.83
2022-11-06T19:21:55.252Z,96.97
2022-11-06T19:24:22.059Z,97.34
2022-11-06T19:26:50.627Z,97.17
2022-11-06T19:29:17.215Z,96.83
2022-11-06T19:31:43.996Z,96.89
2022-11-06T19:34:12.846Z,96.96
2022-11-06T19:36:39.233Z,97.05
2022-11-06T19:39:07.823Z,96.79
2022-11-06T19:41:34.327Z,96.18
2022-11-06T19:44:00.733Z,95.68
2022-11-06T19:46:34.044Z,95.91
2022-11-06T19:49:04.245Z,96.26
2022-11-06T19:51:30.723Z,96.49
2022-11-06T19:53:57.137Z,96.76
2022-11-06T19:56:23.930Z,96.27
2022-11-06T19:58:51.712Z,95.73
2022-11-06T20:01:19.753Z,96.02
2022-11-06T20:03:46.489Z,95.81
2022-11-06T20:06:13.820Z,95.04
2022-11-06T20:08:40.326Z,94.67
2022-11-06T20:11:12.830Z,94.78
2022-11-06T20:13:41.294Z,93.90
2022-11-06T20:16:11.061Z,92.73
2022-11-06T20:18:37.785Z,92.26
2022-11-06T20:21:07.374Z,91.07
2022-11-06T20:23:34.452Z,90.33
2022-11-06T20:26:01.614Z,89.73
2022-11-06T20:28:28.051Z,89.77
2022-11-06T20:30:54.906Z,89.69
2022-11-06T20:33:21.697Z,89.31
2022-11-06T20:35:48.151Z,89.17
2022-11-06T20:38:14.713Z,89.63
2022-11-06T20:40:42.781Z,88.96
2022-11-06T20:43:09.574Z,88.63
2022-11-06T20:45:37.212Z,88.11
2022-11-06T20:48:05.870Z,88.28
2022-11-06T20:50:33.126Z,89.17
2022-11-06T20:52:59.846Z,88.80
2022-11-06T20:55:26.183Z,88.97
2022-11-06T20:57:52.850Z,89.17
2022-11-06T21:00:19.409Z,89.09
2022-11-06T21:02:46.609Z,89.51
2022-11-06T21:05:15.207Z,88.34
2022-11-06T21:07:41.978Z,87.73
2022-11-06T21:10:10.813Z,88.40
2022-11-06T21:12:37.329Z,87.74
2022-11-06T21:15:04.196Z,87.93
2022-11-06T21:17:30.536Z,88.84
2022-11-06T21:19:57.030Z,88.62
2022-11-06T21:22:23.347Z,88.35
2022-11-06T21:24:49.659Z,87.84
2022-11-06T21:27:16.517Z,87.74
2022-11-06T21:29:42.873Z,88.06
2022-11-06T21:32:09.173Z,87.83
2022-11-06T21:34:36.031Z,87.61
2022-11-06T21:37:03.128Z,87.96
2022-11-06T21:39:35.640Z,88.25
2022-11-06T21:42:03.568Z,88.36
2022-11-06T21:44:29.904Z,88.18
2022-11-06T21:46:56.222Z,88.34
2022-11-06T21:49:22.973Z,87.86
2022-11-06T21:51:49.305Z,88.88
2022-11-06T21:54:34.846Z,89.21
2022-11-06T21:57:01.185Z,89.37
2022-11-06T21:59:28.867Z,90.30
2022-11-06T22:01:56.408Z,91.22
2022-11-06T22:04:23.013Z,91.39
2022-11-06T22:06:49.347Z,91.53
2022-11-06T22:09:19.581Z,91.95
2022-11-06T22:11:48.489Z,91.92
2022-11-06T22:14:16.962Z,91.27
2022-11-06T22:16:46.334Z,91.39
2022-11-06T22:19:13.781Z,91.12
2022-11-06T22:21:41.381Z,91.04
2022-11-06T22:24:10.225Z,90.81
2022-11-06T22:26:37.643Z,89.92
2022-11-06T22:29:12.109Z,89.81
2022-11-06T22:31:38.510Z,89.75
2022-11-06T22:34:05.034Z,89.79
2022-11-06T22:36:32.318Z,89.21
2022-11-06T22:39:00.542Z,89.81
2022-11-06T22:41:26.911Z,88.59
2022-11-06T22:43:59.257Z,89.73
2022-11-06T22:46:26.835Z,89.28
2022-11-06T22:48:53.494Z,89.57
2022-11-06T22:51:25.890Z,90.42
2022-11-06T22:53:53.383Z,89.79
2022-11-06T22:56:21.466Z,90.80
2022-11-06T22:58:48.005Z,90.53
2022-11-06T23:01:14.922Z,90.25
2022-11-06T23:03:41.283Z,90.09
2022-11-06T23:06:09.603Z,90.43
2022-11-06T23:08:40.699Z,90.84
2022-11-06T23:11:12.525Z,90.94
2022-11-06T23:13:40.609Z,90.93
2022-11-06T23:16:09.858Z,90.35
2022-11-06T23:18:36.205Z,89.77
2022-11-06T23:21:03.298Z,89.83
2022-11-06T23:23:29.612Z,90.49
2022-11-06T23:25:55.920Z,90.06
2022-11-06T23:28:22.692Z,90.06
2022-11-06T23:30:48.998Z,90.42
2022-11-06T23:33:15.614Z,89.93
2022-11-06T23:35:42.590Z,90.81
2022-11-06T23:38:08.915Z,89.21
2022-11-06T23:40:35.301Z,88.78
2022-11-06T23:43:02.061Z,88.41
2022-11-06T23:45:48.802Z,88.07
2022-11-06T23:48:16.791Z,88.65
2022-11-06T23:50:47.325Z,88.60
2022-11-06T23:53:15.921Z,87.89
2022-11-06T23:55:42.803Z,88.06
2022-11-06T23:58:09.869Z,88.63
